Bunam Airstrip


Codes: AYUN/
Name: Bunam Airstrip
City: Bunam
Country: Papua New Guinea
Elevation: 48 ft.

Photos at Bunam Airstrip


   Photos courtesy of SpottingLog. You can add your own sightings and photos by signing up for a free trial today.



No photos found.

Weather at Bunam Airstrip


Time (UTC)DescriptionTempratureWindCloud coverageVisibilityPressureHumidity
23-May-2024 21:00Overcast Clouds24°C0 mph, S96%10000m1010hPa98%
24-May-2024 00:00Overcast Clouds26°C2 mph, NE96%10000m1010hPa88%
24-May-2024 03:00Light Rain30°C4 mph, NE99%10000m1008hPa68%
24-May-2024 06:00Light Rain29°C2 mph, NW100%10000m1006hPa86%
24-May-2024 09:00Light Rain26°C0 mph, S100%10000m1008hPa96%
24-May-2024 12:00Overcast Clouds25°C2 mph, SW100%10000m1010hPa98%
24-May-2024 15:00Overcast Clouds24°C0 mph, SW88%10000m1009hPa99%
24-May-2024 18:00Overcast Clouds24°C0 mph, S94%10000m1008hPa99%
24-May-2024 21:00Broken Clouds24°C2 mph, SE67%10000m1010hPa98%
25-May-2024 00:00Broken Clouds30°C2 mph, E70%10000m1010hPa67%
25-May-2024 03:00Broken Clouds35°C4 mph, NE52%10000m1007hPa47%
25-May-2024 06:00Broken Clouds34°C7 mph, NE68%10000m1005hPa51%
25-May-2024 09:00Light Rain26°C0 mph, SE92%10000m1008hPa91%
25-May-2024 12:00Overcast Clouds25°C0 mph, W87%10000m1010hPa97%
25-May-2024 15:00Light Rain24°C2 mph, S81%10000m1009hPa99%
25-May-2024 18:00Moderate Rain23°C2 mph, S79%10000m1009hPa99%
25-May-2024 21:00Overcast Clouds24°C0 mph, S87%10000m1010hPa98%
26-May-2024 00:00Light Rain30°C2 mph, E69%10000m1011hPa67%
26-May-2024 03:00Light Rain32°C7 mph, E87%10000m1007hPa58%
26-May-2024 06:00Light Rain30°C2 mph, SE94%10000m1006hPa65%
26-May-2024 09:00Light Rain25°C2 mph, SE100%10000m1008hPa95%
26-May-2024 12:00Overcast Clouds24°C2 mph, SE100%10000m1010hPa98%
26-May-2024 15:00Broken Clouds24°C2 mph, S84%10000m1009hPa99%
26-May-2024 18:00Broken Clouds23°C0 mph, SE81%10000m1008hPa99%
26-May-2024 21:00Broken Clouds23°C2 mph, SW57%10000m1010hPa97%
27-May-2024 00:00Scattered Clouds30°C2 mph, NE47%10000m1010hPa68%
27-May-2024 03:00Clear Sky35°C4 mph, NE9%10000m1006hPa45%
27-May-2024 06:00Few Clouds35°C4 mph, NE13%10000m1004hPa42%
27-May-2024 09:00Broken Clouds26°C2 mph, NE52%10000m1008hPa84%
27-May-2024 12:00Broken Clouds25°C2 mph, SW53%10000m1009hPa92%
27-May-2024 15:00Broken Clouds24°C2 mph, SE52%10000m1008hPa95%
27-May-2024 18:00Broken Clouds23°C0 mph, SE55%10000m1007hPa95%
27-May-2024 21:00Broken Clouds24°C0 mph, SW75%10000m1009hPa91%
28-May-2024 00:00Broken Clouds29°C0 mph, N68%10000m1009hPa69%
28-May-2024 03:00Overcast Clouds32°C2 mph, E90%10000m1007hPa58%
28-May-2024 06:00Broken Clouds33°C2 mph, E69%10000m1005hPa49%
28-May-2024 09:00Broken Clouds26°C2 mph, NE60%10000m1007hPa83%
28-May-2024 12:00Broken Clouds25°C2 mph, SW69%10000m1009hPa94%
28-May-2024 15:00Overcast Clouds24°C2 mph, SW89%10000m1009hPa94%
28-May-2024 18:00Broken Clouds24°C2 mph, S79%10000m1008hPa94%